Time;durP1;ratioP1;P1;durP2;ratioP2;P2;SDS_P1;SDS_P2;PMS_P1;PMS_P2;Temp;Humidity;BMP_temperature;BMP_pressure;BME280_temperature;BME280_humidity;BME280_pressure;Samples;Min_cycle;Max_cycle;Signal;HPM_P1;HPM_P2
2021/01/17 00:00:16;;;;;;;21.10;13.57;;;;;1.00;101082.00;;;;10421108;28;20292;-75
2021/01/17 00:05:22;;;;;;;25.57;13.97;;;;;1.10;101071.00;;;;10431594;28;20246;-75
2021/01/17 00:10:26;;;;;;;24.27;14.47;;;;;1.10;101073.00;;;;10396343;28;20601;-75
2021/01/17 00:15:28;;;;;;;23.10;13.90;;;;;1.10;101077.00;;;;10422136;28;20285;-75
2021/01/17 00:20:29;;;;;;;25.73;15.27;;;;;1.10;101091.00;;;;10421588;28;20198;-75
2021/01/17 00:25:32;;;;;;;25.03;14.60;;;;;1.20;101086.00;;;;10388201;28;20187;-75
2021/01/17 00:30:35;;;;;;;25.43;14.10;;;;;1.20;101087.00;;;;10404023;28;20611;-75
2021/01/17 00:35:36;;;;;;;27.13;15.10;;;;;1.20;101080.00;;;;10387551;28;20621;-75
2021/01/17 00:40:37;;;;;;;27.97;15.60;;;;;1.20;101076.00;;;;10403550;28;20199;-76
2021/01/17 00:45:41;;;;;;;25.47;15.30;;;;;1.20;101069.00;;;;10429345;28;20305;-76
2021/01/17 00:50:44;;;;;;;30.30;15.60;;;;;1.20;101069.00;;;;10444133;28;20194;-76
2021/01/17 00:55:45;;;;;;;30.47;16.07;;;;;1.30;101064.00;;;;10417022;28;20225;-76
2021/01/17 01:00:56;;;;;;;33.30;17.73;;;;;1.30;101058.00;;;;10386464;28;20285;-76
2021/01/17 01:06:16;;;;;;;32.40;18.17;;;;;1.30;101051.00;;;;10426920;28;20609;-76
2021/01/17 01:11:22;;;;;;;30.73;17.00;;;;;1.30;101048.00;;;;10461783;28;20210;-76
2021/01/17 01:16:23;;;;;;;33.03;17.63;;;;;1.30;101052.00;;;;10427310;28;20225;-76
2021/01/17 01:21:29;;;;;;;31.93;17.77;;;;;1.40;101051.00;;;;10443978;28;20202;-75
2021/01/17 01:26:44;;;;;;;35.00;17.30;;;;;1.40;101040.00;;;;10425889;28;20229;-75
2021/01/17 01:31:47;;;;;;;32.77;17.67;;;;;1.40;101033.00;;;;10443377;28;20281;-75
2021/01/17 01:36:49;;;;;;;35.67;17.43;;;;;1.40;101048.00;;;;10426305;28;20206;-76
2021/01/17 01:41:50;;;;;;;34.90;17.80;;;;;1.40;101054.00;;;;10443053;28;20244;-76
2021/01/17 01:46:55;;;;;;;31.57;18.17;;;;;1.50;101059.00;;;;10433776;28;20219;-76
2021/01/17 01:52:02;;;;;;;28.60;15.60;;;;;1.50;101067.00;;;;10419016;28;20195;-76
2021/01/17 01:57:04;;;;;;;29.57;16.47;;;;;1.50;101067.00;;;;10408752;28;20207;-76
2021/01/17 02:02:08;;;;;;;29.13;15.00;;;;;1.50;101079.00;;;;10425367;28;20221;-76
2021/01/17 02:07:12;;;;;;;29.83;16.67;;;;;1.60;101077.00;;;;10449996;28;20183;-76
2021/01/17 02:12:29;;;;;;;31.57;16.00;;;;;1.60;101062.00;;;;10400378;28;20199;-76
2021/01/17 02:17:32;;;;;;;38.50;17.67;;;;;1.60;101074.00;;;;10429127;28;20268;-76
2021/01/17 02:22:37;;;;;;;31.67;17.20;;;;;1.70;101074.00;;;;10424971;28;20204;-76
2021/01/17 02:27:40;;;;;;;34.57;17.47;;;;;1.70;101061.00;;;;10440874;28;20531;-76
2021/01/17 02:32:48;;;;;;;32.67;16.97;;;;;1.70;101056.00;;;;10440954;28;20624;-76
2021/01/17 02:38:12;;;;;;;30.80;16.20;;;;;1.70;101044.00;;;;10440196;28;20205;-76
2021/01/17 02:43:13;;;;;;;29.50;15.93;;;;;1.80;101032.00;;;;10440706;28;20545;-76
2021/01/17 02:48:17;;;;;;;28.17;16.43;;;;;1.80;101036.00;;;;10407274;28;20641;-76
2021/01/17 02:53:43;;;;;;;32.67;17.70;;;;;1.90;101047.00;;;;10439157;28;20260;-76
2021/01/17 02:58:51;;;;;;;32.97;16.40;;;;;1.90;101065.00;;;;10422618;28;20612;-76
2021/01/17 03:04:05;;;;;;;39.33;18.77;;;;;2.00;101061.00;;;;10421182;28;20198;-75
2021/01/17 03:09:06;;;;;;;41.03;20.07;;;;;2.00;101054.00;;;;10395633;28;20226;-76
2021/01/17 03:14:09;;;;;;;42.97;20.10;;;;;2.00;101059.00;;;;10410103;28;20198;-76
2021/01/17 03:19:10;;;;;;;40.57;19.63;;;;;2.00;101048.00;;;;10395773;28;20195;-76
2021/01/17 03:24:11;;;;;;;52.53;22.73;;;;;2.10;101058.00;;;;10414025;28;20242;-76
2021/01/17 03:29:13;;;;;;;46.83;22.33;;;;;2.10;101059.00;;;;10379539;28;20245;-76
2021/01/17 03:34:14;;;;;;;56.97;23.40;;;;;2.20;101060.00;;;;10396379;28;20245;-76
2021/01/17 03:39:16;;;;;;;47.53;21.83;;;;;2.30;101071.00;;;;10379015;28;20257;-76
2021/01/17 03:44:17;;;;;;;60.17;25.60;;;;;2.40;101070.00;;;;10396286;28;20625;-76
2021/01/17 03:49:18;;;;;;;71.93;24.70;;;;;2.40;101078.00;;;;10412276;28;20187;-75
2021/01/17 03:54:19;;;;;;;70.20;27.23;;;;;2.50;101071.00;;;;10395368;28;20190;-76
2021/01/17 03:59:21;;;;;;;69.43;28.00;;;;;2.50;101077.00;;;;10378755;28;20190;-76
2021/01/17 04:04:22;;;;;;;70.63;27.30;;;;;2.50;101076.00;;;;10361070;28;573228;-76
2021/01/17 04:09:23;;;;;;;74.53;28.73;;;;;2.60;101089.00;;;;10408196;28;20217;-76
2021/01/17 04:14:25;;;;;;;77.40;29.30;;;;;2.70;101093.00;;;;10437273;28;20193;-76
2021/01/17 04:19:26;;;;;;;95.67;29.90;;;;;2.80;101095.00;;;;10454435;28;20194;-76
2021/01/17 04:24:27;;;;;;;89.93;34.17;;;;;2.90;101085.00;;;;10454256;28;20198;-76
2021/01/17 04:29:47;;;;;;;93.10;33.37;;;;;2.90;101084.00;;;;10440053;28;20214;-76
2021/01/17 04:34:49;;;;;;;88.73;31.70;;;;;3.00;101101.00;;;;10453617;28;20205;-76
2021/01/17 04:39:51;;;;;;;81.77;31.73;;;;;3.10;101081.00;;;;10437518;28;20248;-76
2021/01/17 04:44:54;;;;;;;87.33;29.33;;;;;3.20;101090.00;;;;10416662;28;20242;-76
2021/01/17 04:50:01;;;;;;;77.63;28.63;;;;;3.40;101084.00;;;;10420378;28;20194;-76
2021/01/17 04:55:03;;;;;;;69.83;23.77;;;;;3.60;101094.00;;;;10420180;28;20308;-76
2021/01/17 05:00:09;;;;;;;67.67;25.67;;;;;3.80;101095.00;;;;10438359;28;20205;-76
2021/01/17 05:05:24;;;;;;;51.03;21.27;;;;;3.90;101082.00;;;;10407056;28;20233;-76
2021/01/17 05:10:47;;;;;;;52.37;19.23;;;;;4.00;101094.00;;;;10420176;28;20195;-76
2021/01/17 05:15:55;;;;;;;45.67;17.57;;;;;4.00;101093.00;;;;10419364;28;20210;-77
2021/01/17 05:20:59;;;;;;;42.03;18.23;;;;;4.00;101094.00;;;;10419863;28;20654;-76
2021/01/17 05:26:04;;;;;;;51.53;16.77;;;;;4.00;101100.00;;;;10424637;28;20198;-76
2021/01/17 05:31:06;;;;;;;34.13;13.40;;;;;4.10;101110.00;;;;10426040;28;20228;-76
2021/01/17 05:36:15;;;;;;;35.33;13.30;;;;;4.20;101102.00;;;;10442782;28;20241;-77
2021/01/17 05:41:26;;;;;;;24.63;10.70;;;;;4.20;101121.00;;;;10442427;28;20506;-77
2021/01/17 05:46:27;;;;;;;35.53;10.93;;;;;4.20;101114.00;;;;10393458;28;20219;-77
2021/01/17 05:51:29;;;;;;;31.57;10.50;;;;;4.20;101131.00;;;;10401109;28;20226;-77
2021/01/17 05:56:36;;;;;;;29.40;11.70;;;;;4.10;101140.00;;;;10418778;28;20210;-77
2021/01/17 06:01:38;;;;;;;42.73;11.07;;;;;4.20;101148.00;;;;10384186;28;20694;-77
2021/01/17 06:06:42;;;;;;;34.77;11.83;;;;;4.20;101156.00;;;;10417314;28;20183;-77
2021/01/17 06:11:56;;;;;;;36.23;11.43;;;;;4.20;101160.00;;;;10399039;28;20733;-77
2021/01/17 06:16:59;;;;;;;30.90;11.93;;;;;4.30;101165.00;;;;10435429;28;20206;-77
2021/01/17 06:22:07;;;;;;;28.27;12.13;;;;;4.30;101167.00;;;;10424024;28;20194;-77
2021/01/17 06:27:09;;;;;;;24.70;9.23;;;;;4.30;101173.00;;;;10424586;28;20602;-76
2021/01/17 06:32:16;;;;;;;27.67;9.83;;;;;4.30;101175.00;;;;10423866;28;20189;-77
2021/01/17 06:37:21;;;;;;;31.27;9.23;;;;;4.30;101175.00;;;;10440357;28;20290;-77
2021/01/17 06:42:24;;;;;;;25.27;8.70;;;;;4.30;101180.00;;;;10440369;28;20286;-77
2021/01/17 06:47:27;;;;;;;29.53;8.80;;;;;4.30;101189.00;;;;10440252;28;20190;-77
2021/01/17 06:52:28;;;;;;;26.20;7.93;;;;;4.20;101189.00;;;;10440507;28;20187;-77
2021/01/17 06:57:34;;;;;;;28.90;8.00;;;;;4.30;101192.00;;;;10422867;28;20246;-77
2021/01/17 07:02:38;;;;;;;30.40;7.27;;;;;4.20;101205.00;;;;10432391;28;20202;-77
2021/01/17 07:07:48;;;;;;;32.40;8.13;;;;;4.30;101206.00;;;;10381854;28;20611;-77
2021/01/17 07:13:07;;;;;;;28.33;9.23;;;;;4.20;101202.00;;;;10383778;28;20208;-77
2021/01/17 07:18:13;;;;;;;25.53;8.23;;;;;4.30;101210.00;;;;10438533;28;20254;-77
2021/01/17 07:23:18;;;;;;;30.27;8.67;;;;;4.20;101228.00;;;;10422379;28;20625;-77
2021/01/17 07:28:21;;;;;;;20.57;8.30;;;;;4.20;101239.00;;;;10454530;28;20634;-77
2021/01/17 07:33:23;;;;;;;38.70;10.43;;;;;4.10;101235.00;;;;10438689;28;20193;-77
2021/01/17 07:38:27;;;;;;;29.90;9.83;;;;;4.10;101251.00;;;;10421840;28;20221;-77
2021/01/17 07:43:31;;;;;;;28.67;9.70;;;;;4.00;101264.00;;;;10430109;28;20322;-77
2021/01/17 07:48:36;;;;;;;34.73;9.67;;;;;4.00;101265.00;;;;10400525;28;20203;-77
2021/01/17 07:54:11;;;;;;;24.97;9.37;;;;;3.90;101279.00;;;;10399665;28;20277;-77
2021/01/17 07:59:12;;;;;;;32.23;9.27;;;;;4.10;101281.00;;;;10380232;28;20288;-77
2021/01/17 08:04:16;;;;;;;39.83;12.20;;;;;4.10;101283.00;;;;10396198;28;20780;-77
2021/01/17 08:09:19;;;;;;;29.87;9.97;;;;;4.20;101300.00;;;;10437543;28;20198;-77
2021/01/17 08:14:26;;;;;;;43.73;10.60;;;;;4.30;101300.00;;;;10437566;28;20201;-77
2021/01/17 08:19:42;;;;;;;33.07;9.73;;;;;4.30;101304.00;;;;10432404;28;20191;-77
2021/01/17 08:24:44;;;;;;;38.07;10.47;;;;;4.40;101314.00;;;;10414468;28;20215;-77
2021/01/17 08:30:08;;;;;;;31.20;10.63;;;;;4.50;101320.00;;;;10413101;28;20202;-77
2021/01/17 08:35:20;;;;;;;33.90;11.17;;;;;4.50;101313.00;;;;10398730;28;20211;-77
2021/01/17 08:40:27;;;;;;;40.83;10.37;;;;;4.60;101330.00;;;;10387443;28;20658;-77
2021/01/17 08:45:29;;;;;;;40.57;10.80;;;;;4.70;101335.00;;;;10427747;28;20218;-76
2021/01/17 08:50:37;;;;;;;35.90;11.87;;;;;4.70;101336.00;;;;10432712;28;20199;-77
2021/01/17 08:55:44;;;;;;;34.20;12.93;;;;;4.70;101339.00;;;;10420591;28;20202;-77
2021/01/17 09:00:45;;;;;;;46.30;9.73;;;;;4.80;101357.00;;;;10403019;28;20247;-77
2021/01/17 09:05:47;;;;;;;47.80;9.83;;;;;4.80;101347.00;;;;10386558;28;20213;-77
2021/01/17 09:10:49;;;;;;;37.10;10.20;;;;;4.90;101380.00;;;;10386325;28;20195;-77
2021/01/17 09:15:58;;;;;;;33.23;8.80;;;;;4.90;101381.00;;;;10419025;28;20238;-77
2021/01/17 09:21:02;;;;;;;35.33;8.93;;;;;4.90;101388.00;;;;10402088;28;20952;-77
2021/01/17 09:26:05;;;;;;;46.80;10.33;;;;;5.00;101395.00;;;;10401742;28;20651;-77
2021/01/17 09:31:07;;;;;;;26.47;9.33;;;;;5.10;101403.00;;;;10385567;28;20523;-77
2021/01/17 09:36:11;;;;;;;40.00;9.63;;;;;5.30;101412.00;;;;10401532;28;20648;-77
2021/01/17 09:41:21;;;;;;;43.70;15.17;;;;;5.40;101423.00;;;;10419677;28;20217;-77
2021/01/17 09:46:26;;;;;;;39.60;12.47;;;;;5.50;101425.00;;;;10449447;28;20218;-77
2021/01/17 09:51:29;;;;;;;38.73;8.53;;;;;5.90;101442.00;;;;10409421;28;20199;-77
2021/01/17 09:56:31;;;;;;;33.17;9.33;;;;;6.10;101447.00;;;;10442604;28;20206;-77
2021/01/17 10:01:34;;;;;;;32.30;8.33;;;;;6.30;101458.00;;;;10395969;28;20857;-77
2021/01/17 10:06:40;;;;;;;30.30;8.73;;;;;6.50;101458.00;;;;10384749;28;20198;-77
2021/01/17 10:11:42;;;;;;;30.20;7.67;;;;;6.60;101471.00;;;;10401258;28;20233;-77
2021/01/17 10:16:49;;;;;;;39.43;9.20;;;;;7.00;101463.00;;;;10452778;28;20926;-77
2021/01/17 10:21:50;;;;;;;25.80;7.40;;;;;7.20;101464.00;;;;10439032;28;20187;-77
2021/01/17 10:26:57;;;;;;;32.97;6.87;;;;;7.10;101473.00;;;;10441262;28;20248;-77
2021/01/17 10:32:04;;;;;;;22.07;7.17;;;;;7.00;101490.00;;;;10458855;28;20194;-77
2021/01/17 10:37:08;;;;;;;25.80;7.40;;;;;6.90;101496.00;;;;10440444;28;20662;-77
2021/01/17 10:42:30;;;;;;;29.17;7.73;;;;;7.60;101493.00;;;;10423669;28;20245;-77
2021/01/17 10:47:42;;;;;;;29.67;7.47;;;;;8.00;101505.00;;;;10407343;28;20244;-77
2021/01/17 10:52:54;;;;;;;19.33;6.17;;;;;7.80;101487.00;;;;10407039;28;20244;-77
2021/01/17 10:57:56;;;;;;;19.10;6.10;;;;;8.30;101497.00;;;;10406136;28;21011;-77
2021/01/17 11:03:05;;;;;;;17.37;5.67;;;;;8.00;101499.00;;;;10415842;28;20724;-77
2021/01/17 11:08:11;;;;;;;20.03;6.83;;;;;7.70;101508.00;;;;10416535;28;20548;-77
2021/01/17 11:13:16;;;;;;;32.23;7.10;;;;;7.80;101510.00;;;;10420930;28;20256;-77
2021/01/17 11:18:21;;;;;;;23.40;6.57;;;;;7.90;101517.00;;;;10439369;28;20305;-77
2021/01/17 11:23:24;;;;;;;27.30;6.70;;;;;7.80;101519.00;;;;10422008;28;20194;-77
2021/01/17 11:28:28;;;;;;;25.60;7.07;;;;;8.00;101509.00;;;;10365160;28;20654;-77
2021/01/17 11:33:30;;;;;;;19.73;7.40;;;;;9.00;101527.00;;;;10415336;28;20257;-77
2021/01/17 11:38:42;;;;;;;25.87;7.27;;;;;8.30;101524.00;;;;10423357;28;20677;-77
2021/01/17 11:43:45;;;;;;;16.93;6.37;;;;;8.50;101522.00;;;;10457239;28;20210;-78
2021/01/17 11:48:46;;;;;;;20.43;6.40;;;;;8.80;101516.00;;;;10424118;28;20186;-77
2021/01/17 11:53:48;;;;;;;17.23;5.40;;;;;9.00;101516.00;;;;10457109;28;20190;-78
2021/01/17 11:58:49;;;;;;;25.60;5.20;;;;;9.10;101522.00;;;;10384129;28;20610;-77
2021/01/17 12:03:59;;;;;;;15.40;5.07;;;;;9.20;101523.00;;;;10381346;28;20207;-77
2021/01/17 12:09:05;;;;;;;16.70;5.10;;;;;9.10;101524.00;;;;10455219;28;20641;-77
2021/01/17 12:14:21;;;;;;;17.93;5.37;;;;;9.20;101533.00;;;;10446146;28;20234;-77
2021/01/17 12:19:24;;;;;;;21.87;5.47;;;;;9.20;101529.00;;;;10461265;28;20555;-77
2021/01/17 12:24:26;;;;;;;12.37;4.27;;;;;9.30;101544.00;;;;10434617;28;20256;-77
2021/01/17 12:29:28;;;;;;;17.67;4.80;;;;;9.10;101537.00;;;;10404134;28;20187;-77
2021/01/17 12:34:31;;;;;;;18.17;4.37;;;;;9.20;101552.00;;;;10421543;28;20201;-77
2021/01/17 12:39:38;;;;;;;13.30;4.00;;;;;9.50;101556.00;;;;10420935;28;20297;-76
2021/01/17 12:44:42;;;;;;;19.13;3.97;;;;;9.20;101552.00;;;;10438054;28;20214;-77
2021/01/17 12:49:43;;;;;;;18.23;3.63;;;;;9.70;101545.00;;;;10462280;28;20198;-77
2021/01/17 12:54:50;;;;;;;17.30;3.93;;;;;10.00;101564.00;;;;10444734;28;20194;-77
2021/01/17 12:59:51;;;;;;;10.57;3.40;;;;;10.00;101560.00;;;;10443052;28;20198;-76
2021/01/17 13:04:52;;;;;;;11.00;3.00;;;;;9.30;101559.00;;;;10434127;28;20385;-77
2021/01/17 13:09:54;;;;;;;12.70;3.60;;;;;9.10;101569.00;;;;10429822;28;20725;-77
2021/01/17 13:14:55;;;;;;;15.87;3.70;;;;;9.20;101557.00;;;;10437482;28;20241;-76
2021/01/17 13:19:56;;;;;;;16.27;3.53;;;;;8.70;101562.00;;;;10446438;28;20221;-76
2021/01/17 13:24:59;;;;;;;15.40;3.83;;;;;8.30;101561.00;;;;10426015;28;20240;-76
2021/01/17 13:30:06;;;;;;;12.53;3.33;;;;;8.10;101581.00;;;;10384922;28;20191;-77
2021/01/17 13:35:08;;;;;;;10.27;2.47;;;;;7.90;101584.00;;;;10385346;28;20230;-76
2021/01/17 13:40:09;;;;;;;15.57;3.20;;;;;7.90;101591.00;;;;10400837;28;20195;-77
2021/01/17 13:45:12;;;;;;;18.93;3.90;;;;;7.90;101592.00;;;;10422462;28;20582;-76
2021/01/17 13:50:14;;;;;;;6.77;2.50;;;;;8.10;101594.00;;;;10437675;28;20186;-76
2021/01/17 13:55:15;;;;;;;11.80;2.97;;;;;8.30;101591.00;;;;10458585;28;20256;-76
2021/01/17 14:00:19;;;;;;;13.13;3.47;;;;;8.20;101599.00;;;;10441019;28;20661;-76
2021/01/17 14:05:21;;;;;;;13.33;2.80;;;;;8.40;101599.00;;;;10441180;28;20221;-76
2021/01/17 14:10:24;;;;;;;12.73;2.80;;;;;8.50;101608.00;;;;10428607;28;20241;-76
2021/01/17 14:15:26;;;;;;;11.27;3.13;;;;;8.00;101605.00;;;;10450710;28;20206;-77
2021/01/17 14:20:28;;;;;;;20.40;3.10;;;;;8.10;101624.00;;;;10440134;28;20661;-76
2021/01/17 14:25:30;;;;;;;13.47;3.13;;;;;8.00;101625.00;;;;10423747;28;20717;-77
2021/01/17 14:30:31;;;;;;;9.93;3.10;;;;;7.70;101642.00;;;;10457792;28;20213;-76
2021/01/17 14:35:32;;;;;;;12.27;3.10;;;;;7.50;101655.00;;;;10439400;28;20206;-76
2021/01/17 14:40:34;;;;;;;13.80;3.40;;;;;7.40;101668.00;;;;10438709;28;20553;-77
2021/01/17 14:45:35;;;;;;;8.13;3.10;;;;;7.50;101669.00;;;;10431521;28;20614;-76
2021/01/17 14:50:37;;;;;;;14.37;3.13;;;;;7.50;101678.00;;;;10416600;28;20205;-76
2021/01/17 14:55:38;;;;;;;13.17;3.57;;;;;7.50;101685.00;;;;10398355;28;20727;-76
2021/01/17 15:00:40;;;;;;;9.20;3.27;;;;;7.20;101694.00;;;;10433703;28;20202;-76
2021/01/17 15:05:41;;;;;;;11.87;3.47;;;;;7.10;101704.00;;;;10414381;28;20253;-76
2021/01/17 15:10:42;;;;;;;14.37;3.77;;;;;7.10;101714.00;;;;10407924;28;20206;-77
2021/01/17 15:15:44;;;;;;;11.63;3.33;;;;;7.00;101717.00;;;;10421683;28;20221;-77
2021/01/17 15:20:45;;;;;;;16.50;4.10;;;;;6.90;101716.00;;;;10436931;28;20224;-77
2021/01/17 15:25:46;;;;;;;11.87;3.27;;;;;6.70;101721.00;;;;10420974;28;20224;-77
2021/01/17 15:30:49;;;;;;;11.67;3.43;;;;;6.60;101735.00;;;;10437970;28;20190;-77
2021/01/17 15:36:25;;;;;;;11.83;3.77;;;;;6.50;101751.00;;;;10427023;28;20210;-77
2021/01/17 15:41:30;;;;;;;13.23;3.77;;;;;6.40;101770.00;;;;10405270;28;20202;-77
2021/01/17 15:46:35;;;;;;;14.37;4.50;;;;;6.30;101773.00;;;;10438595;28;20213;-77
2021/01/17 15:51:42;;;;;;;15.90;4.30;;;;;6.30;101767.00;;;;10437828;28;20193;-77
2021/01/17 15:56:44;;;;;;;17.33;5.63;;;;;6.20;101781.00;;;;10420562;28;20268;-76
2021/01/17 16:01:45;;;;;;;13.13;5.20;;;;;6.20;101793.00;;;;10420759;28;20236;-76
2021/01/17 16:06:47;;;;;;;14.77;5.47;;;;;6.20;101787.00;;;;10436829;28;20190;-76
2021/01/17 16:11:48;;;;;;;15.30;5.13;;;;;6.10;101792.00;;;;10453727;28;20194;-76
2021/01/17 16:16:51;;;;;;;18.97;4.93;;;;;6.10;101804.00;;;;10436855;28;20218;-76
2021/01/17 16:21:54;;;;;;;11.70;4.30;;;;;6.10;101807.00;;;;10407012;28;20218;-77
2021/01/17 16:26:59;;;;;;;14.10;3.90;;;;;6.00;101807.00;;;;10404716;28;20202;-77
2021/01/17 16:32:05;;;;;;;11.80;3.83;;;;;6.00;101808.00;;;;10414487;28;20222;-77
2021/01/17 16:37:28;;;;;;;13.77;3.10;;;;;5.90;101822.00;;;;10449020;28;20202;-76
2021/01/17 16:42:30;;;;;;;11.33;5.40;;;;;5.90;101826.00;;;;10454405;28;20237;-76
2021/01/17 16:47:31;;;;;;;13.33;5.50;;;;;5.90;101827.00;;;;10397278;28;20855;-76
2021/01/17 16:52:35;;;;;;;13.73;4.57;;;;;5.90;101835.00;;;;10435846;28;20791;-76
2021/01/17 16:57:36;;;;;;;17.17;5.20;;;;;5.80;101838.00;;;;10440440;28;20232;-75
2021/01/17 17:02:38;;;;;;;14.73;5.07;;;;;5.70;101844.00;;;;10442439;28;20205;-75
2021/01/17 17:07:43;;;;;;;18.10;6.30;;;;;5.70;101843.00;;;;10441771;28;20194;-75
2021/01/17 17:12:46;;;;;;;17.87;6.00;;;;;5.70;101859.00;;;;10413065;28;20352;-76
2021/01/17 17:17:47;;;;;;;19.40;5.80;;;;;5.70;101864.00;;;;10429322;28;20241;-76
2021/01/17 17:22:49;;;;;;;14.60;6.27;;;;;5.70;101875.00;;;;10428692;28;20531;-76
2021/01/17 17:27:50;;;;;;;25.33;6.73;;;;;5.70;101873.00;;;;10443101;28;20194;-76
2021/01/17 17:32:51;;;;;;;19.30;6.70;;;;;5.70;101890.00;;;;10445231;28;20273;-76
2021/01/17 17:37:54;;;;;;;11.90;4.90;;;;;5.60;101894.00;;;;10448917;28;20211;-76
2021/01/17 17:42:55;;;;;;;15.73;5.87;;;;;5.70;101885.00;;;;10425514;28;20280;-76
2021/01/17 17:47:56;;;;;;;15.50;5.33;;;;;5.60;101893.00;;;;10442000;28;20202;-76
2021/01/17 17:52:59;;;;;;;11.30;4.83;;;;;5.60;101907.00;;;;10441338;28;20194;-76
2021/01/17 17:58:04;;;;;;;16.87;6.53;;;;;5.60;101898.00;;;;10432989;28;20202;-76
2021/01/17 18:03:06;;;;;;;15.97;5.97;;;;;5.50;101914.00;;;;10438723;28;20225;-76
2021/01/17 18:08:25;;;;;;;13.30;5.10;;;;;5.50;101916.00;;;;10427256;28;20210;-76
2021/01/17 18:13:28;;;;;;;21.23;7.57;;;;;5.50;101928.00;;;;10444880;28;20908;-75
2021/01/17 18:18:31;;;;;;;17.17;6.20;;;;;5.50;101920.00;;;;10428037;28;20234;-75
2021/01/17 18:23:34;;;;;;;16.50;6.37;;;;;5.50;101931.00;;;;10457569;28;20191;-75
2021/01/17 18:28:36;;;;;;;13.60;7.20;;;;;5.50;101943.00;;;;10456744;28;20217;-75
2021/01/17 18:33:37;;;;;;;17.23;6.10;;;;;5.50;101942.00;;;;10426693;28;20247;-76
2021/01/17 18:38:38;;;;;;;16.37;7.30;;;;;5.50;101942.00;;;;10422945;28;20217;-75
2021/01/17 18:43:40;;;;;;;14.97;6.97;;;;;5.40;101948.00;;;;10438769;28;20225;-76
2021/01/17 18:48:41;;;;;;;17.57;6.93;;;;;5.50;101952.00;;;;10431594;28;20225;-76
2021/01/17 18:53:43;;;;;;;15.23;5.53;;;;;5.40;101955.00;;;;10426983;28;20210;-75
2021/01/17 18:58:45;;;;;;;12.93;6.47;;;;;5.40;101957.00;;;;10443188;28;20233;-76
2021/01/17 19:03:47;;;;;;;13.53;6.20;;;;;5.40;101958.00;;;;10409329;28;20260;-75
2021/01/17 19:08:48;;;;;;;15.93;4.03;;;;;5.40;101964.00;;;;10413713;28;20179;-75
2021/01/17 19:13:50;;;;;;;14.00;5.47;;;;;5.40;101964.00;;;;10473251;28;20638;-76
2021/01/17 19:18:51;;;;;;;13.90;5.73;;;;;5.40;101964.00;;;;10396283;28;20207;-76
2021/01/17 19:23:52;;;;;;;17.57;6.50;;;;;5.40;101974.00;;;;10407769;28;20676;-75
2021/01/17 19:28:54;;;;;;;15.10;6.60;;;;;5.40;101971.00;;;;10441507;28;20236;-76
2021/01/17 19:33:56;;;;;;;18.40;5.80;;;;;5.30;101973.00;;;;10435395;28;20715;-76
2021/01/17 19:38:57;;;;;;;17.87;7.17;;;;;5.30;101972.00;;;;10427800;28;20284;-75
2021/01/17 19:43:59;;;;;;;18.17;6.50;;;;;5.30;101975.00;;;;10416572;28;20222;-75
2021/01/17 19:49:02;;;;;;;12.00;6.10;;;;;5.30;101976.00;;;;10418098;28;20225;-75
2021/01/17 19:54:04;;;;;;;18.00;6.83;;;;;5.30;101959.00;;;;10412592;28;20207;-75
2021/01/17 19:59:06;;;;;;;13.60;5.73;;;;;5.30;101951.00;;;;10441267;28;20293;-75
2021/01/17 20:04:07;;;;;;;18.23;7.57;;;;;5.30;101965.00;;;;10421710;28;20216;-76
2021/01/17 20:09:09;;;;;;;14.73;11.60;;;;;5.30;101960.00;;;;10427012;28;20257;-76
2021/01/17 20:14:11;;;;;;;12.30;5.83;;;;;5.20;101971.00;;;;10449870;28;20240;-75
2021/01/17 20:19:12;;;;;;;12.13;5.87;;;;;5.20;101971.00;;;;10412316;28;20626;-75
2021/01/17 20:24:14;;;;;;;11.97;6.00;;;;;5.20;101965.00;;;;10420127;28;20194;-75
2021/01/17 20:29:16;;;;;;;12.37;6.90;;;;;5.20;101968.00;;;;10418479;28;20194;-75
2021/01/17 20:34:17;;;;;;;15.43;6.73;;;;;5.20;101966.00;;;;10435178;28;20225;-75
2021/01/17 20:39:19;;;;;;;17.57;8.80;;;;;5.20;101970.00;;;;10444431;28;20210;-75
2021/01/17 20:44:21;;;;;;;16.63;8.27;;;;;5.20;101975.00;;;;10461100;28;20210;-75
2021/01/17 20:49:23;;;;;;;15.53;7.90;;;;;5.20;101971.00;;;;10444109;28;20204;-76
2021/01/17 20:54:43;;;;;;;18.97;8.07;;;;;5.20;101981.00;;;;10432202;28;20193;-76
2021/01/17 20:59:44;;;;;;;17.60;8.77;;;;;5.20;101986.00;;;;10458188;28;20233;-76
2021/01/17 21:04:46;;;;;;;14.43;7.97;;;;;5.10;101983.00;;;;10443134;28;20293;-76
2021/01/17 21:09:47;;;;;;;12.47;6.97;;;;;5.10;101988.00;;;;10426878;28;20201;-76
2021/01/17 21:14:48;;;;;;;11.83;6.90;;;;;5.10;101992.00;;;;10440216;28;20187;-76
2021/01/17 21:19:49;;;;;;;13.67;7.30;;;;;5.10;102001.00;;;;10441730;28;20234;-76
2021/01/17 21:24:51;;;;;;;19.73;6.03;;;;;5.10;101997.00;;;;10441791;28;20206;-76
2021/01/17 21:29:52;;;;;;;13.93;7.73;;;;;5.10;101986.00;;;;10409201;28;20649;-76
2021/01/17 21:35:06;;;;;;;13.97;7.03;;;;;5.10;101992.00;;;;10446668;28;20205;-76
2021/01/17 21:40:11;;;;;;;11.30;7.83;;;;;5.10;101993.00;;;;10409141;28;20238;-76
2021/01/17 21:45:13;;;;;;;18.63;7.37;;;;;5.10;101990.00;;;;10419891;28;20252;-76
2021/01/17 21:50:15;;;;;;;13.73;6.67;;;;;5.10;101996.00;;;;10458019;28;20194;-76
2021/01/17 21:55:16;;;;;;;18.97;8.60;;;;;5.10;101990.00;;;;10423253;28;20249;-75
2021/01/17 22:00:24;;;;;;;17.37;9.13;;;;;5.00;101987.00;;;;10421751;28;20229;-75
2021/01/17 22:05:26;;;;;;;13.87;7.43;;;;;5.00;101978.00;;;;10440875;28;20206;-75
2021/01/17 22:10:28;;;;;;;15.40;8.30;;;;;5.00;101984.00;;;;10423607;28;20187;-75
2021/01/17 22:15:30;;;;;;;15.07;7.37;;;;;4.90;101985.00;;;;10415547;28;20194;-76
2021/01/17 22:20:31;;;;;;;22.87;7.57;;;;;4.80;102001.00;;;;10427399;28;20210;-75
2021/01/17 22:25:32;;;;;;;13.90;7.87;;;;;4.70;102002.00;;;;10456942;28;20198;-76
2021/01/17 22:30:34;;;;;;;19.37;8.93;;;;;4.70;102011.00;;;;10454573;28;20269;-75
2021/01/17 22:35:35;;;;;;;18.20;7.50;;;;;4.50;102001.00;;;;10455660;28;20289;-76
2021/01/17 22:40:36;;;;;;;19.00;9.90;;;;;4.50;102003.00;;;;10406126;28;20263;-76
2021/01/17 22:45:38;;;;;;;17.90;8.23;;;;;4.40;101998.00;;;;10422087;28;20258;-76
2021/01/17 22:50:40;;;;;;;20.27;8.43;;;;;4.40;101995.00;;;;10416718;28;20210;-76
2021/01/17 22:55:41;;;;;;;15.20;8.23;;;;;4.40;101984.00;;;;10411332;28;20203;-76
2021/01/17 23:00:42;;;;;;;15.17;8.53;;;;;4.30;101997.00;;;;10419231;28;20214;-76
2021/01/17 23:05:44;;;;;;;19.40;9.87;;;;;4.30;101998.00;;;;10394472;28;20213;-76
2021/01/17 23:10:47;;;;;;;17.97;8.93;;;;;4.40;102005.00;;;;10423782;28;20198;-76
2021/01/17 23:15:48;;;;;;;16.00;9.30;;;;;4.40;102012.00;;;;10437224;28;20198;-76
2021/01/17 23:20:50;;;;;;;19.67;8.60;;;;;4.50;102009.00;;;;10441546;28;20198;-76
2021/01/17 23:25:52;;;;;;;16.53;8.67;;;;;4.60;102014.00;;;;10437320;28;20301;-76
2021/01/17 23:30:53;;;;;;;20.63;8.87;;;;;4.60;102016.00;;;;10414225;28;20256;-76
2021/01/17 23:35:55;;;;;;;20.43;8.53;;;;;4.60;102014.00;;;;10430604;28;20224;-76
2021/01/17 23:40:57;;;;;;;24.87;9.70;;;;;4.60;102021.00;;;;10437452;28;20556;-76
2021/01/17 23:45:59;;;;;;;15.80;8.83;;;;;4.60;102021.00;;;;10437760;28;20256;-76
2021/01/17 23:51:04;;;;;;;18.50;8.37;;;;;4.70;102032.00;;;;10454084;28;20281;-76
2021/01/17 23:56:05;;;;;;;26.53;9.07;;;;;4.70;102023.00;;;;10410458;28;20257;-76
